Skip to content

GuitarMania

(*.29.94.88) 조회 수 25118 댓글 12
트레몰로 소리가 잘안들린다고 하셔서들....^^ㅋㅋ
다시 mp3로 올렸지라~ㅋㅋ
지송...폭탄기간이 다시..72시간으로...ㅋㅋㅋ
Comment '12'
  • JoDaC 2007.06.15 22:06 (*.142.96.78)
    트레몰로....정말 이것만큼 인내심을 필요로하는건 없습니다.....
    저같은경우에는 트레몰로는 항상일률적이어야한다고생각하는데
    손톱문제....손가락유격조정과 곡의진행에따른 손가락긴장상태...이런 복합적인것들을요하는 트레몰로에
    틈틈히연습하는 저로서는 도저히 일률적으로 칠수가없더군요.....한마디로
    '그때그때달라요;;;'....연습시간을늘리곤 싶은데,,,,,도저히시간이....ㅠ

    곡 잘들었습니다. 시원시원한진행...... 한가지아쉬운건 밸런스가 안맞네요.... 저음부나 고음부가.....
    트레몰로는 상당히일률적이신거같습니다...손톱은어떻게관리하시는지??
  • Jason 2007.06.16 08:22 (*.29.94.88)
    ami 손톱이 마니 짧은것 같은 소리가....
    그라고....쪼께 천천히 가시면....
    페페가 친곡을 들어보니 속도는 비슷한데 ...
    페페는 엄청 부드럽고....님은.....
    조금만 부드러우면 하는 욕심이.....
    지송~ 지적만 해서리.......
  • 샤콘느1004 2007.06.16 09:44 (*.216.46.47)
    잘 치시네요..
    페페와 속도는 비슷한데
    페페는 빠르다는 느낌이 안들고 이 연주는 빠르다는 느낌이 드네요
    이정도 실력이시면 이제 컨트롤에 신경쓰셔야할거 같아요
    손가락을 정확하고 일정하게 현에 걸어주는 제구력
  • 아이모레스 2007.06.16 21:49 (*.158.12.20)
    와~~아 한 트레몰로들 하시는 분들 정말 많네요!!!!!^^
    음량 크고... 자신있는 탄현이 정말 속이 후련할 정도네요...
  • Jason 2007.06.18 22:38 (*.29.94.88)
    ㅋㅋㅋ....
    아무도 저라는 것을 모른다는.....
    요즘 폭탄은 점점 재미가 없어지는듯.....
    ami 손톱들이 거의 없는 상태로 쳣습니다.
    한 일주일후면 어느정도 길어질것 같네요.
    다시 올려볼께요. ^^
  • 샤콘느1004 2007.06.18 22:54 (*.208.29.223)
    제이슨님이라는건 생각도못했네요,,
    손톱이 길어지면 어떤소리가 나실지 궁금해요..
    저는 어느정도길이로 연주를 할지 아직도 고민중입니다. 너무 짧으니 헛방이 잘 나와서
    너무 길면 잡음이 생기고...
    너무 빨리 치신거 같다는 생각이 자꾸 드네요 ^^;;
  • Man_Wang 2007.06.18 23:23 (*.184.49.41)
    룡이 형...정말 오랜만이다...30여년 내가 기억 하는 형의 곡 중에 한 곡...아랑훼즈...마적 등...손가락이 보이는듯하네...고맙다 이렇게 다시 듣게 해줘서...
  • JoDaC 2007.06.19 08:29 (*.142.96.156)
    손톱길르시면 정말 환상적이시겠군요.....^^;; 기대됩니당~^-^
  • Jason 2007.06.19 10:43 (*.29.94.88)
    손톱을 가만이..보니..완전히 자랄려면 일주일은 모자랄듯...
    지금은 어중간하게 자라서 어느곡을 쳐두 손톱소리가 장난이 아닌듯...^^
    엄지하구 간혹 ㅋㅗ후비는 애기 손가락만 손톱이 길다는...ㅋㅋㅋ
    한번더 폭탄 해야징~ ^^
  • 민.. 2007.06.23 20:47 (*.40.224.154)
    손톱소리가 쬐메 들리기는 하지만 좋네요~ ^^
  • ldh2187 2007.06.29 01:09 (*.50.66.152)
    손톱소리가 너무 많이 나는군요....마치 야마시따처럼......

    야마시따는 훌륭한 테크닉을 소유하고도 허접한 음색때문에 정상의 자리에 오르지 못했습니다.

    음색은 사람의 심금을 울리는 중요한 요소입니다. 음색에 신경쓰시길.......
  • 콩쥐 2007.07.28 16:03 (*.84.127.245)
    손톱이 조금 더 자란다음 촉촉하게 뽑아주면 어떨까 기대해 봅니다...
    녹음기가 저음을 잘 받아주네요.,....
?

List of Articles
번호 제목 글쓴이 날짜 조회 수
1841 Love Affair 6 2007.06.02 20404
1840 zapateado///rodrigo 13 김은미 2007.06.03 25882
1839 최후의 트레몰로 (리버브효과없는겁니다..;;) 4 file JoDaC 2007.06.09 20585
1838 최후의 트레몰로 입니다 ^^ 32 file JoDaC 2007.06.06 24996
1837 전설 11 file 최병욱 2007.06.06 24935
1836 I believe 13 file orpheus15 2007.06.08 20478
1835 Romance.3번. 10 file 우체국가는길 2007.06.08 25186
1834 Kiss the Rain 이루마 곡 (기타 연주) 44 file 아이모레스 2007.06.12 28244
1833 오 솔레미오 4 file 밀롱가. 2007.06.14 22781
» Recuerdos de la Alhambra -F. Tarrega 12 file Jason 2007.06.15 25118
1831 알함브라 다시녹음했습니다~ 14 file 최병욱 2007.06.16 23487
1830 [re] 소르 연습곡 6번-리버브를 넣어보았습니다. 1 file niceplace 2007.06.20 23350
1829 소르 연습곡 6번 8 file niceplace 2007.06.17 23366
1828 Romance.3번. 다시 올려요 6 file 우체국가는길 2007.06.17 27497
1827 뱃노래 - 코스트 12 file fernando 2007.06.19 24123
1826 유키구라모토의 Meditation 18 file 최병욱 2007.06.19 25444
1825 fredric hand의 연습곡 1번 4 file 루하기 2007.06.21 17197
1824 리브라소나티네 3.Fuoco-롤랑디용 27 file MSGr 2007.06.21 29869
1823 바흐 샤콘느 10 file 좁은길로 2007.06.26 25166
1822 쉘부르의 우산 3 file nice guy 2007.06.27 24320
1821 Koyunbaba - C. Domeniconi 25 file 진느 2007.06.27 21339
1820 F. Tarrega,Capricho Arabe 33 file Jason 2007.06.28 24031
1819 Agua e Vinho - Egberto Gismonti 18 file limnz 2007.06.29 23549
1818 BWV1006a 프렐류드 3 file 좁은길로 2007.06.29 23152
1817 이노래어떤가요? Pulo do Gato(P.Bellinati) 15 file MSGr 2007.07.01 28347
1816 L'HYMNE A L'AMOUR / E.PIAF 24 file April 2007.07.04 22613
1815 Kleine Romanze- L. Walker 10 file Jason 2007.07.05 22213
1814 Triste Santuario by Vincent Gomez-슬픈 예배당 17 file Jason 2007.07.05 26012
1813 대성당1악장 8 file 좁은길로 2007.07.05 21625
1812 이루마의 When the love falls 7 file 최병욱 2007.07.07 45247
1811 종소리 12 file 좁은길로 2007.07.07 25057
1810 소르의 마적입니다... 19 file 화가 2007.07.08 29715
1809 brahms-theme and variations 20 file 기타레타 2007.07.09 31339
1808 [영상] 엘레지 Elegie (메르츠 Mertz) 3 2007.07.09 24305
1807 이병우 - 달려 18 file 김상욱 2007.07.09 23430
1806 대성당2악장 4 file 좁은길로 2007.07.09 32901
1805 도적의 노래-ibach 연주 16 file 바하의꿈 2007.07.10 24373
1804 하프시 팟사 완주--! 4 file 좁은길로 2007.07.10 23031
1803 핑거스타일- Sun dance (Kotaro Oshio) 7 file 최병욱 2007.07.11 26856
1802 Giuliani-- Rossiniana No.1 (글로빌 아트홀 실황연주) 15 file LDH 2007.07.11 20011
1801 엔커리지먼트-소르 39 file 기타레타 2007.07.11 24176
1800 이 곡 제목이 뭔가요? 3 file -_ - 2007.07.12 20747
1799 헨델의 아리아 23 file 아이모레스 2007.07.12 24111
1798 G선상의 아리아 - J.S.BACH 43 file 기타레타 2007.07.13 24963
1797 이루마의 Kiss the Rain 6 file 최병욱 2007.07.13 24674
1796 Pierre Bensusan - 아도니스의 정원 12 file 찬찬 2007.07.14 25984
1795 Bach - BWV1007 Prelude & Allemande 16 file 김상욱 2007.07.14 23494
1794 Wonderful tonight 43 file - 情 - 2007.07.14 26681
1793 Variation on Theme of Mozart - F.Sor 32 file Jason 2007.07.15 24777
1792 월량대표아적심(月亮代表我的心) 29 이진성 2007.07.19 26656
1791 Fantasia Arabe by Sabicas 22 file Jason 2007.07.22 20432
1790 샤콘느 뒤에뒤부분 7 file 좁은길로 2007.07.23 21101
1789 유키 구라모토의 Lake Louise(새로운 편곡) 17 file 최병욱 2007.07.23 24367
1788 Aria no.1 - F. Kleynjans 11 file bradpitt 2007.07.24 24250
1787 Septiembre (Maximo Diego Pujol) 21 file 라일 2007.07.26 22924
1786 (이중주) Green Sleeves 20 file niceplace 2007.07.27 26396
1785 BWV1006a Prelude 7 file 좁은길로 2007.07.27 26542
1784 A. Piazzolla Quattro Stagioni (부에노스아이레스의 사계) 1. Primavera portend (봄) 8 file sgq 2007.07.27 24229
1783 A. Piazzolla Oblivion(망각) 3 file sgq 2007.07.27 23791
1782 A. Piazzolla Liebertango 1 file sgq 2007.07.27 24819
1781 P. Bellinati Baiao de Gude 서울기타콰르텟 4 file sgq 2007.07.27 24786
1780 사람이 꽃보다 아름다워~~~ 4 야매 2007.07.28 25004
1779 Fur Elise by L. Van Beethoven 62 file Jason 2007.07.28 28702
1778 부탁 김효석 2007.07.29 20086
1777 클레이앙스-로망스1번(이중주) 6 file 기타레타 2007.07.30 20995
1776 Lamento No.2 / F. Kleynjans 12 file 이진성 2007.08.01 22065
1775 The old rugged cross by G. Bennard 10 file Jason 2007.08.02 23515
1774 로망스 no.1(이중주)-끌레앙 16 file 체르니 2007.08.04 33243
1773 Sleeprs, Awake! 눈뜨라부르는소리있어 7 file 좁은길로 2007.08.05 21543
1772 Estudio No.12 / F. Sor 13 file 이진성 2007.08.06 24109
1771 Partners in Praise / 안신영님 편곡 10 file orpheus15 2007.08.07 21079
1770 알베니즈-야자나무 아래에서 13 file 기타레타 2007.08.08 30059
1769 로드리고 // 고풍스런 티엔토 30 file 진느 2007.08.08 26690
1768 Sor Etude#6 10 file 밀롱가. 2007.08.10 21747
1767 Classical Gas/Mason Williams -클래식컬 개스 23 file Jason 2007.08.10 24177
1766 Adelita 2 file sky600 2007.08.12 16252
1765 maria luisa 6 file sky600 2007.08.12 25865
1764 sunflower 14 file 한사랑 2007.08.13 22568
1763 Tango En Skai 11 file 좁은길로 2007.08.13 25506
1762 바흐 // Choral from cantata147 arr.David Russell 31 file 진느 2007.08.14 22169
1761 milonga 6 file 2007.08.15 23361
1760 [동영상] Barrios - Una Limosna por el amor de Dios (최후의 트레몰로) 39 file 김상욱 2007.08.17 29261
1759 텅 빈 놀이터 II by devilous 9 file devilous 2007.08.20 22020
1758 Sleepers, Awake! from Cantata BWV140 9 file April 2007.08.20 21987
1757 Yuichi Watanabe - Morning Dew 5 file 2007.08.21 25609
1756 Falla--ThreeCorneredHat(KimMoonHyung & Chung Sehee) 7 file 바하의꿈 2007.08.21 26588
1755 망고레의 Contemplacion (깊은 그리움) 24 file 아이모레스 2007.08.22 24229
1754 헨델의 대장간변주?^^ Handel--Blacksmith Variations 19 file 바하의꿈 2007.08.23 25535
1753 F. Sor의 인커리지먼트 18 file 바하의꿈 2007.08.24 26330
1752 알함브라궁전의 추억 12 file 정면 2007.08.24 22964
1751 죄송한! 탕고 안 스까이 바이 로랑디앙 (조율 맞춰 재업)ㅠ 8 file buyho 2007.08.26 18200
1750 Stairway to Heaven, Classical/Unplugged version 기악 독주 7 file 2007.08.28 26966
1749 Les Feuilles Mortes (고엽) - Joseph Kosma 20 file 고정석 2007.08.29 23143
1748 Beautiful Dreamer(토스토) 7 file 까치 2007.08.30 24861
1747 줄리아니 기타협주곡 5 file buyho 2007.09.04 22200
1746 가을편지 / 안형수 편곡 15 file orpheus15 2007.09.04 24298
1745 녹음은 어떻게 하나요? 2 소르초이 2007.09.05 21314
1744 TOmmy Emmanuel-Angelina 10 file 좁은길로 2007.09.05 20513
1743 내마음의 보석상자(동영상) 7 야매 2007.09.07 25953
1742 Venus(동영상) 4 야매 2007.09.07 28801
Board Pagination ‹ Prev 1 ... 11 12 13 14 15 16 17 18 19 20 21 22 23 24 25 26 27 28 29 30 ... 39 Next ›
/ 39

나눔글꼴 설치 안내


이 PC에는 나눔글꼴이 설치되어 있지 않습니다.

이 사이트를 나눔글꼴로 보기 위해서는
나눔글꼴을 설치해야 합니다.

설치 취소

Designed by sketchbooks.co.kr / sketchbook5 board skin

Sketchbook5, 스케치북5

Sketchbook5, 스케치북5

Sketchbook5, 스케치북5

Sketchbook5, 스케치북5

Powered by Xpress Engine / Designed by hikaru100

abcXYZ, 세종대왕,1234

abcXYZ, 세종대왕,1234